Powerscourt Airfield

Jump to: basic info | weather | comments

Related pages: nearby airports | nearby navaids | notams | map

Basic information (top)

Codes: EIPT
Location: lon 53.178301, lat -6.196495, elev 470 ft / 143 m msl
Status: small_airport

Weather (top)

Current conditions for Casement Air Base 12nm (22km) NW (rec'd 2014/04/24 21:00Z):

EIME 242100Z 10007KT 9999 FEW016 BKN210 07/04 Q1017

Airport forecast for Dublin Airport 15nm (27km) N (rec'd 2014/04/24 18:26Z):

TAF EIDW 241700Z 2418/2518 12010KT 9999 SCT023 
      BECMG 2418/2420 11006KT 
      BECMG 2420/2423 VRB03KT 
      TEMPO 2501/2507 4000 BR SCT005 
      BECMG 2512/2514 13008KT

Latest comments (top)

Reopened: does anybody know about reopening and ppr? [read]

Operations suspended at this airport: Air Accident Investigation Unit Interim ... [read]

re: Powerscourt Airfield: Thank you very much - I've updated the position. [read]

Powerscourt Airfield: Position 53:10.787N 006:12.075W ... [read]

More... (top)

See also NOTAMs and nearby airports and navaids, or visit the Powerscourt Airfield page at the main OurAirports website..